Ana Sayfa
METAR-TAF:

METAR-TAF

Havaalanları :

Belgrad Nikola Tesla Havalimanı

Belgrad, Sırbistan

Enlem: 44-49N, Boylam: 020-17E, yükseklik: 96 m

Güncel hava durumu gözlemi

Rapor saat 13:30 UTC de 35 dakika önce yapıldı.
Rüzgar kuzeybatıdan 7 kt, batı ve kuzey arasında değişken
Sıcaklık 10°C
Nem 43%
Basınç 1032 hPa
Görüş mesafesi 10 km veya daha fazla
4500 ft yükseklikte parçalı bulutlu

METAR: LYBE 221330Z 31007KT 260V350 9999 SCT045 10/M02 Q1032 NOSIG

Saat: 15:05 (14:05 UTC)

Tahmin

Rapor saat 11:00 UTC de 3 saat ve 5 dakika önce yapıldı.
Ayın 22'si saat 12 UTC'den ayın 23'si saat 12 UTC'ye kadar geçerli Tahmin
Rüzgar batıdan 8 kt
Görüş mesafesi 10 km veya daha fazla
1500 m altında bulut yok ve kümülonimbus yok

TAF: LYBE 221100Z 2212/2312 28008KT CAVOK TX10/2213Z TN01/2306Z

4.000'den fazla havaalanı için hava durumu gözlemleri ve tahminleri (METAR ve TAF raporları).

Kullanılabilir istasyonlar harita üzerinde sarı ve kırmızı noktalarla gösterilir.

İstasyonun adını görmek için fareyi noktanın üzerinde gezdirin.

Sonrasında hava gözlem ve tahminlerini görmek için tıklayın.

Haritayı değiştirmek için: yaklaştırmak için siyah artı işaretli yeşil düğmeye ve uzaklaştırmak için de eksi işaretli düğmeye hızla tıklayın; bitişik haritalar için yeşil okları kullanın.


METAR-TAF: